createdAt,value
2023-02-14T09:24:02.284Z,3.35
2023-02-14T09:26:29.015Z,3.40
2023-02-14T09:29:01.690Z,3.45
2023-02-14T09:31:29.579Z,3.51
2023-02-14T09:33:56.267Z,3.45
2023-02-14T09:36:23.581Z,3.48
2023-02-14T09:38:54.082Z,3.45
2023-02-14T09:41:30.370Z,3.54
2023-02-14T09:44:29.288Z,3.56
2023-02-14T09:47:19.019Z,3.57
2023-02-14T09:49:53.921Z,3.61
2023-02-14T09:52:27.362Z,3.61
2023-02-14T09:55:05.080Z,3.61
2023-02-14T09:58:17.453Z,3.61
2023-02-14T10:01:10.809Z,3.56
2023-02-14T10:04:44.763Z,3.55
2023-02-14T10:17:14.624Z,3.57
2023-02-14T10:19:57.804Z,3.61
2023-02-14T10:22:39.978Z,3.58
2023-02-14T10:25:53.845Z,3.62
2023-02-14T10:28:39.194Z,3.64
2023-02-14T10:31:44.381Z,3.61
2023-02-14T10:34:47.522Z,3.60
2023-02-14T10:37:47.625Z,3.59
2023-02-14T10:40:57.768Z,3.62
2023-02-14T10:44:03.611Z,3.71
2023-02-14T10:47:08.210Z,3.78
2023-02-14T10:56:43.518Z,3.77
2023-02-14T10:59:48.349Z,3.70
2023-02-14T11:02:32.110Z,3.66
2023-02-14T11:05:26.968Z,3.62
2023-02-14T11:07:59.129Z,3.57
2023-02-14T11:10:35.425Z,3.57
2023-02-14T11:13:51.562Z,3.60
2023-02-14T11:16:34.008Z,3.65
2023-02-14T11:19:43.215Z,3.71
2023-02-14T11:22:31.012Z,3.79
2023-02-14T11:25:19.093Z,3.84
2023-02-14T11:27:59.333Z,3.91
2023-02-14T11:30:41.982Z,4.01
2023-02-14T11:33:34.348Z,4.12
2023-02-14T11:36:09.915Z,4.20
2023-02-14T11:38:39.567Z,4.28
2023-02-14T11:41:11.535Z,4.34
2023-02-14T11:43:40.530Z,4.43
2023-02-14T11:46:41.241Z,4.52
2023-02-14T11:49:30.096Z,4.63
2023-02-14T11:52:01.896Z,4.68
2023-02-14T11:54:36.842Z,4.69
2023-02-14T11:57:13.836Z,4.65
2023-02-14T11:59:48.141Z,4.63
2023-02-14T12:02:24.156Z,4.66
2023-02-14T12:05:20.928Z,4.66
2023-02-14T12:07:52.902Z,4.71
2023-02-14T12:10:25.794Z,4.76
2023-02-14T12:13:13.758Z,4.76
2023-02-14T12:16:00.631Z,4.77
2023-02-14T12:19:07.342Z,4.79
2023-02-14T12:21:46.479Z,4.77
2023-02-14T12:24:16.036Z,4.73
2023-02-14T12:27:23.052Z,4.78
2023-02-14T12:30:19.662Z,4.84
2023-02-14T12:33:13.215Z,4.80
2023-02-14T12:35:54.221Z,4.76
2023-02-14T12:39:11.089Z,4.75
2023-02-14T12:41:48.242Z,4.75
2023-02-14T12:45:04.183Z,4.75
2023-02-14T12:48:06.164Z,4.69
2023-02-14T12:51:11.691Z,4.70
2023-02-14T12:54:05.120Z,4.83
2023-02-14T12:56:55.093Z,4.92
2023-02-14T13:18:05.686Z,4.95
2023-02-14T13:20:45.988Z,4.87
2023-02-14T13:23:42.840Z,4.80
2023-02-14T13:26:41.061Z,4.79
2023-02-14T13:29:16.191Z,4.84
2023-02-14T13:31:46.434Z,4.92
2023-02-14T13:34:38.405Z,5.01
2023-02-14T13:37:11.682Z,5.09
2023-02-14T13:39:43.968Z,5.18
2023-02-14T13:42:14.857Z,5.29
2023-02-14T13:44:50.103Z,5.32
2023-02-14T13:47:23.888Z,5.38
2023-02-14T13:50:05.601Z,5.45
2023-02-14T13:52:49.043Z,5.47
2023-02-14T13:55:44.312Z,5.45
2023-02-14T13:58:18.519Z,5.43
2023-02-14T14:00:49.065Z,5.39
2023-02-14T14:04:05.692Z,5.36
2023-02-14T14:07:26.809Z,5.27
2023-02-14T14:10:02.355Z,5.22
2023-02-14T14:12:52.285Z,5.19
2023-02-14T14:15:20.635Z,5.17
2023-02-14T14:18:09.101Z,5.18
2023-02-14T14:20:54.610Z,5.25
2023-02-14T14:23:34.319Z,5.29
2023-02-14T14:26:01.724Z,5.35
2023-02-14T14:28:32.231Z,5.38
2023-02-14T14:31:02.052Z,5.40
2023-02-14T14:33:39.672Z,5.38
2023-02-14T14:36:11.047Z,5.39
2023-02-14T14:38:49.986Z,5.42
2023-02-14T14:41:18.445Z,5.47
2023-02-14T14:43:46.836Z,5.50
2023-02-14T14:46:18.180Z,5.49
2023-02-14T14:48:56.460Z,5.51
2023-02-14T14:51:30.996Z,5.57
2023-02-14T14:56:58.993Z,5.59
2023-02-14T14:59:37.617Z,5.56
2023-02-14T15:02:29.502Z,5.52
2023-02-14T15:05:06.063Z,5.51
2023-02-14T15:07:37.982Z,5.53
2023-02-14T15:10:28.082Z,5.55
2023-02-14T15:13:17.143Z,5.52
2023-02-14T15:15:55.300Z,5.51
2023-02-14T15:18:22.718Z,5.49
2023-02-14T15:20:52.219Z,5.47
2023-02-14T15:23:23.330Z,5.45
2023-02-14T15:25:52.350Z,5.40
2023-02-14T15:28:33.920Z,5.37
2023-02-14T15:31:07.982Z,5.34
2023-02-14T15:33:38.843Z,5.30
2023-02-14T15:36:19.332Z,5.28
2023-02-14T15:38:48.215Z,5.27
2023-02-14T15:41:16.570Z,5.23
2023-02-14T15:43:53.730Z,5.18
2023-02-14T15:46:43.678Z,5.20
2023-02-14T15:49:39.665Z,5.19
2023-02-14T15:52:11.946Z,5.19
2023-02-14T15:54:43.401Z,5.16
2023-02-14T15:57:29.779Z,5.16
2023-02-14T15:59:57.135Z,5.16
2023-02-14T16:02:32.996Z,5.17
2023-02-14T16:05:08.494Z,5.16
2023-02-14T16:07:35.438Z,5.12
2023-02-14T16:10:44.011Z,5.10
2023-02-14T16:13:42.163Z,5.08
2023-02-14T16:17:00.863Z,5.05
2023-02-14T16:19:40.095Z,5.05
2023-02-14T16:22:10.495Z,5.02
2023-02-14T16:24:48.083Z,4.94
2023-02-14T16:27:18.098Z,4.86
2023-02-14T16:29:46.289Z,4.81
2023-02-14T16:32:26.133Z,4.81
2023-02-14T16:34:57.832Z,4.83
2023-02-14T16:37:30.694Z,4.81
2023-02-14T16:40:02.033Z,4.76
2023-02-14T16:42:30.710Z,4.75
2023-02-14T16:45:25.597Z,4.77
2023-02-14T16:47:56.660Z,4.77
2023-02-14T16:50:25.925Z,4.78
2023-02-14T16:53:12.034Z,4.78
2023-02-14T16:55:42.525Z,4.73
2023-02-14T16:58:15.925Z,4.69
2023-02-14T17:00:45.905Z,4.67
2023-02-14T17:03:20.240Z,4.62
2023-02-14T17:05:52.803Z,4.57
2023-02-14T17:08:27.733Z,4.53
2023-02-14T17:10:59.198Z,4.52
2023-02-14T17:13:29.955Z,4.53
2023-02-14T17:16:03.314Z,4.52
2023-02-14T17:18:38.665Z,4.51
2023-02-14T17:22:12.351Z,4.49
2023-02-14T17:24:42.745Z,4.45
2023-02-14T17:27:13.423Z,4.43
2023-02-14T17:29:45.588Z,4.39
2023-02-14T17:32:20.149Z,4.37
2023-02-14T17:34:57.186Z,4.35
2023-02-14T17:37:49.454Z,4.31
2023-02-14T17:40:25.154Z,4.29
2023-02-14T17:42:55.263Z,4.28
2023-02-14T17:45:24.241Z,4.28
2023-02-14T17:47:52.806Z,4.26
2023-02-14T17:50:21.375Z,4.27
2023-02-14T17:52:57.835Z,4.23
2023-02-14T17:55:24.732Z,4.18
2023-02-14T17:57:54.472Z,4.14
2023-02-14T18:00:22.065Z,4.12
2023-02-14T18:02:50.114Z,4.12
2023-02-14T18:05:17.894Z,4.14
2023-02-14T18:07:44.934Z,4.15
2023-02-14T18:10:13.114Z,4.14
2023-02-14T18:12:40.866Z,4.14
2023-02-14T18:15:08.290Z,4.16
2023-02-14T18:17:35.893Z,4.15
2023-02-14T18:20:05.739Z,4.12
2023-02-14T18:22:33.319Z,4.13
2023-02-14T18:25:00.203Z,4.11
2023-02-14T18:27:26.630Z,4.11
2023-02-14T18:29:53.910Z,4.10
2023-02-14T18:32:20.708Z,4.04
2023-02-14T18:34:48.513Z,4.01
2023-02-14T18:37:15.560Z,4.01
2023-02-14T18:39:42.450Z,3.99
2023-02-14T18:42:09.544Z,3.97
2023-02-14T18:44:36.759Z,3.94
2023-02-14T18:47:03.668Z,3.89
2023-02-14T18:49:30.612Z,3.86
2023-02-14T18:51:58.280Z,3.83
2023-02-14T18:54:24.964Z,3.82
2023-02-14T18:56:51.803Z,3.80
2023-02-14T18:59:18.376Z,3.78
2023-02-14T19:01:45.633Z,3.74
2023-02-14T19:04:14.050Z,3.74
2023-02-14T19:06:42.798Z,3.71
2023-02-14T19:09:14.770Z,3.74
2023-02-14T19:11:44.425Z,3.73
2023-02-14T19:14:12.893Z,3.68
2023-02-14T19:16:51.747Z,3.64
2023-02-14T19:19:19.298Z,3.57
2023-02-14T19:21:49.874Z,3.54
2023-02-14T19:24:18.454Z,3.53
2023-02-14T19:26:45.791Z,3.49
2023-02-14T19:29:20.044Z,3.45
2023-02-14T19:31:49.658Z,3.40
2023-02-14T19:34:23.789Z,3.36
2023-02-14T19:36:52.653Z,3.32
2023-02-14T19:39:22.426Z,3.33
2023-02-14T19:41:53.382Z,3.32
2023-02-14T19:44:29.171Z,3.30
2023-02-14T19:47:00.872Z,3.29
2023-02-14T19:49:30.493Z,3.29
2023-02-14T19:51:59.145Z,3.27
2023-02-14T19:54:29.591Z,3.25
2023-02-14T19:57:00.829Z,3.26
2023-02-14T19:59:36.892Z,3.26
2023-02-14T20:02:04.126Z,3.27
2023-02-14T20:04:32.621Z,3.21
2023-02-14T20:07:01.087Z,3.19
2023-02-14T20:09:29.022Z,3.20
2023-02-14T20:11:58.782Z,3.18
2023-02-14T20:14:38.423Z,3.19
2023-02-14T20:17:39.575Z,3.18
2023-02-14T20:20:09.252Z,3.16
2023-02-14T20:22:39.095Z,3.13
2023-02-14T20:25:07.956Z,3.11
2023-02-14T20:27:49.506Z,3.10
2023-02-14T20:30:35.584Z,3.10
2023-02-14T20:33:02.735Z,3.09
2023-02-14T20:35:34.117Z,3.08
2023-02-14T20:40:53.898Z,3.08
2023-02-14T20:43:25.831Z,3.07
2023-02-14T20:45:53.434Z,3.06
2023-02-14T20:48:21.545Z,3.04
2023-02-14T20:50:49.609Z,3.04
2023-02-14T20:53:17.086Z,3.03
2023-02-14T20:55:48.343Z,3.06
2023-02-14T20:58:23.654Z,3.08
2023-02-14T21:01:00.249Z,3.00
2023-02-14T21:03:31.935Z,2.93
2023-02-14T21:06:05.579Z,2.90
2023-02-14T21:08:34.406Z,2.93
2023-02-14T21:11:09.934Z,2.92
2023-02-14T21:13:39.728Z,2.93
2023-02-14T21:16:17.292Z,2.93
2023-02-14T21:18:52.212Z,2.91
2023-02-14T21:21:23.692Z,2.94
2023-02-14T21:23:52.031Z,3.01
2023-02-14T21:26:21.341Z,3.05
2023-02-14T21:29:13.151Z,3.03
2023-02-14T21:31:41.253Z,3.00
2023-02-14T21:34:53.841Z,3.01
2023-02-14T21:37:46.096Z,3.07
2023-02-14T21:40:18.744Z,3.09
2023-02-14T21:42:48.969Z,3.11
2023-02-14T21:45:37.734Z,3.14
2023-02-14T21:48:24.555Z,3.16
2023-02-14T21:50:55.648Z,3.13
2023-02-14T21:53:25.190Z,3.14
2023-02-14T21:55:54.292Z,3.13
2023-02-14T21:58:26.718Z,3.13
2023-02-14T22:00:56.579Z,3.16
2023-02-14T22:03:33.994Z,3.18
2023-02-14T22:06:08.016Z,3.17
2023-02-14T22:08:39.336Z,3.17
2023-02-14T22:11:16.724Z,3.20
2023-02-14T22:13:52.274Z,3.23
2023-02-14T22:16:38.135Z,3.25
2023-02-14T22:19:12.681Z,3.24
2023-02-14T22:23:43.839Z,3.27
2023-02-14T22:26:57.913Z,3.26
2023-02-14T22:29:28.765Z,3.34
2023-02-14T22:32:00.927Z,3.43
2023-02-14T22:34:38.568Z,3.48
